createdAt,value
2022-10-18T00:00:56.853Z,98495.53
2022-10-18T00:03:25.143Z,98491.84
2022-10-18T00:05:53.372Z,98497.50
2022-10-18T00:08:21.599Z,98503.75
2022-10-18T00:10:49.845Z,98503.06
2022-10-18T00:13:18.099Z,98500.06
2022-10-18T00:15:51.735Z,98496.66
2022-10-18T00:18:20.118Z,98491.56
2022-10-18T00:20:57.645Z,98490.72
2022-10-18T00:23:26.067Z,98484.16
2022-10-18T00:26:01.424Z,98484.47
2022-10-18T00:28:29.646Z,98488.72
2022-10-18T00:30:59.296Z,98484.44
2022-10-18T00:33:27.821Z,98486.44
2022-10-18T00:35:56.056Z,98482.16
2022-10-18T00:38:24.231Z,98483.72
2022-10-18T00:40:52.480Z,98485.19
2022-10-18T00:43:20.748Z,98482.75
2022-10-18T00:45:49.007Z,98472.50
2022-10-18T00:48:19.042Z,98479.19
2022-10-18T00:50:47.198Z,98469.94
2022-10-18T00:53:17.752Z,98469.94
2022-10-18T00:55:46.157Z,98472.53
2022-10-18T00:58:14.786Z,98466.94
2022-10-18T01:00:43.037Z,98476.91
2022-10-18T01:03:11.577Z,98471.38
2022-10-18T01:05:46.089Z,98460.69
2022-10-18T01:08:25.901Z,98467.25
2022-10-18T01:10:58.167Z,98465.81
2022-10-18T01:13:33.805Z,98470.50
2022-10-18T01:16:06.573Z,98456.00
2022-10-18T01:18:36.891Z,98462.84
2022-10-18T01:21:17.567Z,98453.88
2022-10-18T01:24:19.283Z,98463.13
2022-10-18T01:27:04.995Z,98455.00
2022-10-18T01:29:50.336Z,98453.56
2022-10-18T01:32:20.958Z,98456.13
2022-10-18T01:34:49.273Z,98453.16
2022-10-18T01:37:18.749Z,98461.84
2022-10-18T01:39:47.888Z,98459.44
2022-10-18T01:42:18.519Z,98452.03
2022-10-18T01:44:46.925Z,98450.19
2022-10-18T01:47:15.306Z,98440.66
2022-10-18T01:49:44.928Z,98437.09
2022-10-18T01:52:14.399Z,98437.09
2022-10-18T01:54:44.441Z,98444.19
2022-10-18T01:57:15.707Z,98440.50
2022-10-18T01:59:49.013Z,98442.78
2022-10-18T02:02:21.516Z,98450.75
2022-10-18T02:04:53.321Z,98450.03
2022-10-18T02:07:25.289Z,98444.19
2022-10-18T02:09:57.765Z,98445.78
2022-10-18T02:12:26.051Z,98449.19
2022-10-18T02:14:54.353Z,98450.31
2022-10-18T02:17:22.832Z,98440.50
2022-10-18T02:19:53.194Z,98444.34
2022-10-18T02:22:21.459Z,98448.63
2022-10-18T02:24:51.013Z,98447.63
2022-10-18T02:27:19.259Z,98446.91
2022-10-18T02:29:47.783Z,98441.63
2022-10-18T02:32:19.044Z,98444.47
2022-10-18T02:34:48.156Z,98438.94
2022-10-18T02:37:17.753Z,98434.13
2022-10-18T02:39:47.352Z,98433.84
2022-10-18T02:42:15.673Z,98439.06
2022-10-18T02:44:43.895Z,98431.41
2022-10-18T02:47:12.451Z,98433.13
2022-10-18T02:49:40.708Z,98437.09
2022-10-18T02:52:08.920Z,98427.72
2022-10-18T02:54:38.803Z,98435.97
2022-10-18T02:57:08.648Z,98444.06
2022-10-18T02:59:36.888Z,98437.94
2022-10-18T03:02:05.104Z,98428.28
2022-10-18T03:04:33.398Z,98427.72
2022-10-18T03:07:01.622Z,98426.16
2022-10-18T03:09:30.197Z,98425.56
2022-10-18T03:11:59.763Z,98429.97
2022-10-18T03:14:28.037Z,98433.25
2022-10-18T03:16:56.219Z,98433.84
2022-10-18T03:19:24.460Z,98435.69
2022-10-18T03:21:52.633Z,98426.28
2022-10-18T03:24:20.821Z,98428.97
2022-10-18T03:26:49.067Z,98429.56
2022-10-18T03:29:19.123Z,98437.66
2022-10-18T03:31:47.699Z,98436.25
2022-10-18T03:34:17.793Z,98433.13
2022-10-18T03:36:46.044Z,98439.78
2022-10-18T03:39:15.286Z,98435.09
2022-10-18T03:41:43.588Z,98440.25
2022-10-18T03:44:11.875Z,98431.81
2022-10-18T03:46:41.577Z,98435.25
2022-10-18T03:49:09.740Z,98437.94
2022-10-18T03:51:38.318Z,98436.53
2022-10-18T03:54:06.612Z,98435.97
2022-10-18T03:56:34.890Z,98438.38
2022-10-18T03:59:05.491Z,98438.22
2022-10-18T04:01:33.779Z,98437.53
2022-10-18T04:04:03.418Z,98435.97
2022-10-18T04:06:31.710Z,98436.41
2022-10-18T04:09:00.005Z,98443.47
2022-10-18T04:11:28.323Z,98439.78
2022-10-18T04:13:56.547Z,98446.91
2022-10-18T04:16:24.812Z,98441.50
2022-10-18T04:18:53.069Z,98439.66
2022-10-18T04:21:22.766Z,98443.91
2022-10-18T04:23:50.986Z,98447.31
2022-10-18T04:26:24.957Z,98441.22
2022-10-18T04:28:53.208Z,98440.78
2022-10-18T04:31:21.550Z,98439.63
2022-10-18T04:33:49.789Z,98434.38
2022-10-18T04:36:17.978Z,98445.88
2022-10-18T04:38:47.661Z,98446.03
2022-10-18T04:41:16.425Z,98451.72
2022-10-18T04:46:13.892Z,98446.75
2022-10-18T04:48:42.192Z,98439.75
2022-10-18T04:51:10.548Z,98437.91
2022-10-18T04:53:38.744Z,98431.19
2022-10-18T04:56:09.423Z,98427.69
2022-10-18T04:58:37.598Z,98429.81
2022-10-18T05:01:06.900Z,98436.06
2022-10-18T05:03:35.154Z,98442.19
2022-10-18T05:06:03.661Z,98445.31
2022-10-18T05:08:32.014Z,98446.03
2022-10-18T05:11:00.384Z,98435.38
2022-10-18T05:13:30.032Z,98442.06
2022-10-18T05:15:59.596Z,98433.50
2022-10-18T05:18:28.664Z,98437.94
2022-10-18T05:20:56.978Z,98437.66
2022-10-18T05:23:25.311Z,98434.53
2022-10-18T05:25:53.624Z,98437.50
2022-10-18T05:28:40.052Z,98441.50
2022-10-18T05:31:11.049Z,98450.31
2022-10-18T05:33:40.002Z,98452.03
2022-10-18T05:36:10.031Z,98453.44
2022-10-18T05:38:42.319Z,98461.84
2022-10-18T05:41:11.741Z,98459.53
2022-10-18T05:43:40.323Z,98460.53
2022-10-18T05:46:15.145Z,98449.31
2022-10-18T05:48:45.177Z,98448.88
2022-10-18T05:51:13.568Z,98456.69
2022-10-18T05:53:42.608Z,98457.84
2022-10-18T05:56:12.707Z,98460.41
2022-10-18T05:58:43.818Z,98464.41
2022-10-18T06:01:14.365Z,98469.25
2022-10-18T06:03:42.565Z,98474.06
2022-10-18T06:06:11.469Z,98469.66
2022-10-18T06:08:40.053Z,98470.81
2022-10-18T06:11:08.846Z,98471.66
2022-10-18T06:13:41.429Z,98472.78
2022-10-18T06:16:12.027Z,98479.91
2022-10-18T06:18:41.909Z,98474.50
2022-10-18T06:21:10.694Z,98474.50
2022-10-18T06:23:38.992Z,98480.03
2022-10-18T06:26:08.419Z,98479.78
2022-10-18T06:28:37.147Z,98481.03
2022-10-18T06:31:05.715Z,98488.72
2022-10-18T06:33:35.760Z,98486.44
2022-10-18T06:36:08.553Z,98483.59
2022-10-18T06:38:36.935Z,98489.72
2022-10-18T06:41:06.088Z,98480.03
2022-10-18T06:43:34.350Z,98483.16
2022-10-18T06:46:03.289Z,98477.94
2022-10-18T06:48:31.797Z,98482.59
2022-10-18T06:51:00.913Z,98488.72
2022-10-18T06:53:44.163Z,98498.97
2022-10-18T06:56:16.833Z,98504.94
2022-10-18T06:58:45.142Z,98509.50
2022-10-18T07:01:15.863Z,98508.63
2022-10-18T07:03:44.135Z,98511.59
2022-10-18T07:06:13.683Z,98519.84
2022-10-18T07:08:43.306Z,98521.97
2022-10-18T07:11:15.461Z,98522.53
2022-10-18T07:13:43.725Z,98519.97
2022-10-18T07:16:15.711Z,98514.56
2022-10-18T07:18:48.460Z,98525.09
2022-10-18T07:21:17.841Z,98521.41
2022-10-18T07:23:48.899Z,98525.53
2022-10-18T07:26:18.569Z,98527.53
2022-10-18T07:28:48.220Z,98534.22
2022-10-18T07:31:16.822Z,98534.81
2022-10-18T07:33:45.086Z,98547.03
2022-10-18T07:36:13.594Z,98535.69
2022-10-18T07:38:41.888Z,98533.13
2022-10-18T07:41:12.474Z,98547.63
2022-10-18T07:43:43.652Z,98550.47
2022-10-18T07:46:11.943Z,98545.03
2022-10-18T07:48:40.804Z,98552.59
2022-10-18T07:51:09.216Z,98556.44
2022-10-18T07:53:37.555Z,98556.25
2022-10-18T07:56:09.876Z,98554.25
2022-10-18T08:01:43.281Z,98569.22
2022-10-18T08:04:16.077Z,98568.94
2022-10-18T08:06:44.778Z,98569.78
2022-10-18T08:09:13.099Z,98566.41
2022-10-18T08:11:41.373Z,98569.53
2022-10-18T08:14:11.079Z,98565.13
2022-10-18T08:16:39.363Z,98576.06
2022-10-18T08:19:07.648Z,98576.06
2022-10-18T08:21:36.244Z,98583.34
2022-10-18T08:24:04.714Z,98579.50
2022-10-18T08:26:33.008Z,98582.47
2022-10-18T08:29:23.324Z,98587.91
2022-10-18T08:31:52.762Z,98589.19
2022-10-18T08:34:21.029Z,98587.47
2022-10-18T08:36:50.729Z,98596.03
2022-10-18T08:39:19.042Z,98602.16
2022-10-18T08:42:13.868Z,98608.72
2022-10-18T08:44:44.941Z,98602.72
2022-10-18T08:47:26.275Z,98607.56
2022-10-18T08:50:01.190Z,98606.69
2022-10-18T08:52:34.098Z,98606.81
2022-10-18T08:55:04.144Z,98595.88
2022-10-18T08:57:32.792Z,98602.00
2022-10-18T09:00:01.413Z,98606.25
2022-10-18T09:02:46.222Z,98617.22
2022-10-18T09:05:21.623Z,98623.03
2022-10-18T09:08:12.702Z,98627.16
2022-10-18T09:10:45.493Z,98626.31
2022-10-18T09:13:32.487Z,98621.50
2022-10-18T09:16:01.009Z,98628.44
2022-10-18T09:18:38.281Z,98635.28
2022-10-18T09:21:09.277Z,98631.16
2022-10-18T09:23:40.660Z,98632.72
2022-10-18T09:26:11.772Z,98637.56
2022-10-18T09:28:43.405Z,98633.56
2022-10-18T09:31:14.815Z,98637.88
2022-10-18T09:33:48.394Z,98633.63
2022-10-18T09:36:19.191Z,98637.56
2022-10-18T09:38:49.806Z,98633.88
2022-10-18T09:41:21.325Z,98641.59
2022-10-18T09:43:53.110Z,98635.63
2022-10-18T09:46:21.901Z,98644.69
2022-10-18T09:48:54.132Z,98639.00
2022-10-18T09:51:23.316Z,98646.53
2022-10-18T09:54:11.684Z,98647.50
2022-10-18T09:56:42.138Z,98650.06
2022-10-18T09:59:25.340Z,98647.22
2022-10-18T10:01:55.274Z,98649.75
2022-10-18T10:04:24.934Z,98658.41
2022-10-18T10:06:53.436Z,98657.72
2022-10-18T10:09:29.093Z,98650.88
2022-10-18T10:11:57.781Z,98661.03
2022-10-18T10:14:28.549Z,98657.63
2022-10-18T10:16:57.988Z,98668.97
2022-10-18T10:19:34.575Z,98660.59
2022-10-18T10:22:05.276Z,98656.50
2022-10-18T10:24:43.109Z,98660.38
2022-10-18T10:27:19.082Z,98657.50
2022-10-18T10:30:06.786Z,98657.34
2022-10-18T10:32:47.897Z,98654.69
2022-10-18T10:38:26.716Z,98666.94
2022-10-18T10:40:55.357Z,98665.25
2022-10-18T10:43:40.215Z,98659.97
2022-10-18T10:46:09.504Z,98670.34
2022-10-18T10:48:42.828Z,98661.94
2022-10-18T10:51:12.661Z,98657.09
2022-10-18T10:53:45.450Z,98665.06
2022-10-18T10:56:24.717Z,98659.72
2022-10-18T10:58:53.126Z,98663.03
2022-10-18T11:01:27.152Z,98656.38
2022-10-18T11:03:56.588Z,98664.28
2022-10-18T11:06:39.029Z,98648.31
2022-10-18T11:09:13.894Z,98655.91
2022-10-18T11:11:47.014Z,98651.44
2022-10-18T11:14:26.182Z,98644.00
2022-10-18T11:16:58.525Z,98640.84
2022-10-18T11:19:34.303Z,98632.00
2022-10-18T11:22:06.384Z,98632.44
2022-10-18T11:24:35.073Z,98636.50
2022-10-18T11:27:05.081Z,98636.50
2022-10-18T11:29:41.458Z,98637.28
2022-10-18T11:32:14.769Z,98629.72
2022-10-18T11:34:50.809Z,98625.41
2022-10-18T11:37:34.656Z,98617.13
2022-10-18T11:40:16.061Z,98619.13
2022-10-18T11:42:46.895Z,98623.19
2022-10-18T11:45:24.132Z,98618.72
2022-10-18T11:47:55.921Z,98623.63
2022-10-18T11:50:29.814Z,98622.44
2022-10-18T11:53:05.208Z,98620.81
2022-10-18T11:55:49.021Z,98625.09
2022-10-18T11:58:28.710Z,98618.00
2022-10-18T12:00:58.532Z,98617.69
2022-10-18T12:03:31.237Z,98614.25
2022-10-18T12:06:03.994Z,98611.06
2022-10-18T12:08:36.109Z,98614.75
2022-10-18T12:11:10.430Z,98610.41
2022-10-18T12:13:40.860Z,98614.88
2022-10-18T12:16:09.435Z,98611.06
2022-10-18T12:18:37.912Z,98603.06
2022-10-18T12:21:06.289Z,98596.44
2022-10-18T12:23:40.602Z,98594.72
2022-10-18T12:26:10.621Z,98598.00
2022-10-18T12:28:44.419Z,98596.22
2022-10-18T12:31:17.303Z,98582.66
2022-10-18T12:33:46.909Z,98599.28
2022-10-18T12:36:24.383Z,98596.47
2022-10-18T12:38:54.979Z,98586.75
2022-10-18T12:41:24.689Z,98586.81
2022-10-18T12:43:53.148Z,98594.63
2022-10-18T12:46:21.706Z,98604.16
2022-10-18T12:48:52.956Z,98592.38
2022-10-18T12:51:21.954Z,98590.72
2022-10-18T12:53:53.108Z,98586.44
2022-10-18T12:56:41.957Z,98590.50
2022-10-18T12:59:41.673Z,98583.88
2022-10-18T13:02:27.447Z,98583.97
2022-10-18T13:07:41.226Z,98590.00
2022-10-18T13:10:42.547Z,98588.41
2022-10-18T13:13:44.013Z,98590.22
2022-10-18T13:16:41.219Z,98596.94
2022-10-18T13:19:20.843Z,98597.72
2022-10-18T13:21:52.900Z,98587.91
2022-10-18T13:24:27.109Z,98582.88
2022-10-18T13:27:35.554Z,98588.09
2022-10-18T13:30:28.595Z,98589.31
2022-10-18T13:33:05.215Z,98589.00
2022-10-18T13:35:52.652Z,98575.44
2022-10-18T13:38:53.186Z,98588.78
2022-10-18T13:41:25.488Z,98585.81
2022-10-18T13:44:28.554Z,98585.44
2022-10-18T13:47:15.632Z,98584.09
2022-10-18T13:50:07.771Z,98589.53
2022-10-18T13:52:45.805Z,98596.25
2022-10-18T13:55:31.294Z,98591.44
2022-10-18T13:58:02.016Z,98592.56
2022-10-18T14:00:49.493Z,98599.00
2022-10-18T14:03:55.165Z,98594.53
2022-10-18T14:06:17.703Z,98585.47
2022-10-18T14:08:48.731Z,98594.13
2022-10-18T14:11:35.854Z,98589.22
2022-10-18T14:14:08.198Z,98588.63
2022-10-18T14:16:43.181Z,98585.34
2022-10-18T14:19:16.206Z,98592.19
2022-10-18T14:21:50.897Z,98588.47
2022-10-18T14:24:23.970Z,98582.41
2022-10-18T14:27:14.171Z,98588.84
2022-10-18T14:29:42.718Z,98587.97
2022-10-18T14:32:12.917Z,98593.59
2022-10-18T14:34:44.604Z,98590.31
2022-10-18T14:37:23.933Z,98593.34
2022-10-18T14:39:52.394Z,98593.66
2022-10-18T14:42:22.346Z,98591.66
2022-10-18T14:44:54.270Z,98596.69
2022-10-18T14:47:25.175Z,98586.72
2022-10-18T14:49:54.622Z,98585.69
2022-10-18T14:52:29.453Z,98590.81
2022-10-18T14:55:01.301Z,98589.59
2022-10-18T14:57:31.036Z,98592.91
2022-10-18T15:00:02.124Z,98596.47
2022-10-18T15:02:31.046Z,98598.50
2022-10-18T15:05:00.300Z,98613.75
2022-10-18T15:07:30.859Z,98611.78
2022-10-18T15:09:59.816Z,98605.47
2022-10-18T15:12:33.955Z,98598.53
2022-10-18T15:15:17.853Z,98602.25
2022-10-18T15:17:46.459Z,98595.00
2022-10-18T15:20:22.220Z,98601.41
2022-10-18T15:22:53.182Z,98599.59
2022-10-18T15:25:27.961Z,98606.13
2022-10-18T15:27:59.561Z,98605.44
2022-10-18T15:30:29.125Z,98610.00
2022-10-18T15:32:57.774Z,98610.28
2022-10-18T15:35:27.810Z,98607.81
2022-10-18T15:37:58.223Z,98613.38
2022-10-18T15:40:41.675Z,98609.38
2022-10-18T15:43:35.135Z,98617.50
2022-10-18T15:46:07.390Z,98614.06
2022-10-18T15:48:40.140Z,98613.06
2022-10-18T15:51:17.446Z,98615.47
2022-10-18T15:53:55.553Z,98615.63
2022-10-18T15:56:31.961Z,98622.16
2022-10-18T15:59:01.004Z,98626.09
2022-10-18T16:01:33.945Z,98617.25
2022-10-18T16:04:02.480Z,98613.56
2022-10-18T16:06:30.682Z,98619.38
2022-10-18T16:09:00.235Z,98614.97
2022-10-18T16:11:28.637Z,98620.41
2022-10-18T16:13:59.664Z,98620.50
2022-10-18T16:16:29.413Z,98623.75
2022-10-18T16:18:57.972Z,98622.84
2022-10-18T16:21:29.316Z,98623.44
2022-10-18T16:23:57.641Z,98626.59
2022-10-18T16:26:27.345Z,98630.53
2022-10-18T16:28:55.954Z,98628.66
2022-10-18T16:31:25.280Z,98622.25
2022-10-18T16:33:55.205Z,98634.34
2022-10-18T16:39:16.557Z,98636.03
2022-10-18T16:41:46.399Z,98633.59
2022-10-18T16:44:15.326Z,98643.03
2022-10-18T16:46:43.537Z,98626.72
2022-10-18T16:51:51.590Z,98655.59
2022-10-18T16:54:19.889Z,98644.28
2022-10-18T16:56:50.318Z,98641.69
2022-10-18T16:59:22.551Z,98641.16
2022-10-18T17:01:50.857Z,98653.28
2022-10-18T17:04:19.100Z,98652.47
2022-10-18T17:06:47.743Z,98662.75
2022-10-18T17:09:15.974Z,98666.22
2022-10-18T17:11:44.987Z,98667.81
2022-10-18T17:14:14.577Z,98672.88
2022-10-18T17:16:44.539Z,98680.56
2022-10-18T17:19:15.797Z,98673.09
2022-10-18T17:21:44.538Z,98686.34
2022-10-18T17:24:13.040Z,98680.59
2022-10-18T17:26:41.317Z,98689.03
2022-10-18T17:29:10.072Z,98697.38
2022-10-18T17:31:40.004Z,98693.94
2022-10-18T17:34:09.148Z,98694.66
2022-10-18T17:36:37.341Z,98695.16
2022-10-18T17:39:06.094Z,98686.19
2022-10-18T17:41:34.589Z,98695.25
2022-10-18T17:44:03.873Z,98700.28
2022-10-18T17:46:32.127Z,98697.88
2022-10-18T17:49:01.868Z,98700.25
2022-10-18T17:51:30.112Z,98704.50
2022-10-18T17:53:58.338Z,98698.56
2022-10-18T17:56:31.193Z,98697.34
2022-10-18T17:58:59.492Z,98701.84
2022-10-18T18:01:27.819Z,98710.72
2022-10-18T18:03:57.854Z,98713.16
2022-10-18T18:06:31.833Z,98719.16
2022-10-18T18:09:00.199Z,98716.38
2022-10-18T18:11:28.424Z,98723.31
2022-10-18T18:13:56.811Z,98723.53
2022-10-18T18:16:26.337Z,98718.50
2022-10-18T18:18:55.187Z,98721.25
2022-10-18T18:21:41.448Z,98724.50
2022-10-18T18:24:11.411Z,98726.13
2022-10-18T18:26:57.881Z,98725.06
2022-10-18T18:29:27.313Z,98717.75
2022-10-18T18:31:55.531Z,98720.25
2022-10-18T18:34:24.148Z,98725.75
2022-10-18T18:36:52.476Z,98720.38
2022-10-18T18:39:23.749Z,98715.72
2022-10-18T18:41:53.227Z,98722.63
2022-10-18T18:44:21.761Z,98713.97
2022-10-18T18:46:50.590Z,98714.66
2022-10-18T18:49:18.864Z,98723.88
2022-10-18T18:51:47.072Z,98718.84
2022-10-18T18:54:15.433Z,98714.91
2022-10-18T18:56:45.083Z,98725.09
2022-10-18T18:59:13.845Z,98729.16
2022-10-18T19:01:42.364Z,98725.97
2022-10-18T19:04:10.970Z,98723.78
2022-10-18T19:06:40.579Z,98717.50
2022-10-18T19:09:12.805Z,98725.00
2022-10-18T19:11:41.569Z,98717.19
2022-10-18T19:14:11.679Z,98721.34
2022-10-18T19:16:40.317Z,98719.75
2022-10-18T19:19:28.814Z,98716.97
2022-10-18T19:21:57.761Z,98723.09
2022-10-18T19:24:26.692Z,98718.78
2022-10-18T19:26:55.739Z,98713.09
2022-10-18T19:29:26.193Z,98718.03
2022-10-18T19:31:56.102Z,98722.13
2022-10-18T19:34:25.019Z,98715.88
2022-10-18T19:36:53.894Z,98716.97
2022-10-18T19:39:22.751Z,98726.16
2022-10-18T19:41:52.848Z,98720.28
2022-10-18T19:44:21.163Z,98730.69
2022-10-18T19:46:50.963Z,98724.13
2022-10-18T19:49:19.391Z,98720.63
2022-10-18T19:51:47.941Z,98718.03
2022-10-18T19:54:16.587Z,98720.59
2022-10-18T19:56:44.875Z,98730.47
2022-10-18T19:59:13.698Z,98723.59
2022-10-18T20:01:42.016Z,98720.06
2022-10-18T20:04:11.804Z,98717.72
2022-10-18T20:06:40.169Z,98713.09
2022-10-18T20:09:08.994Z,98718.38
2022-10-18T20:11:37.373Z,98719.53
2022-10-18T20:14:06.511Z,98724.22
2022-10-18T20:16:34.771Z,98727.47
2022-10-18T20:19:21.470Z,98726.50
2022-10-18T20:21:51.339Z,98725.00
2022-10-18T20:24:19.545Z,98725.31
2022-10-18T20:26:47.966Z,98727.25
2022-10-18T20:29:16.299Z,98728.97
2022-10-18T20:31:44.537Z,98727.22
2022-10-18T20:34:13.045Z,98728.72
2022-10-18T20:36:41.645Z,98729.78
2022-10-18T20:39:11.244Z,98738.69
2022-10-18T20:41:41.277Z,98740.72
2022-10-18T20:44:13.397Z,98737.69
2022-10-18T20:46:42.024Z,98740.94
2022-10-18T20:49:11.842Z,98741.13
2022-10-18T20:51:40.048Z,98745.88
2022-10-18T20:54:08.672Z,98741.22
2022-10-18T20:56:38.990Z,98746.25
2022-10-18T20:59:09.844Z,98749.78
2022-10-18T21:01:38.699Z,98751.84
2022-10-18T21:04:08.202Z,98757.84
2022-10-18T21:06:37.065Z,98751.53
2022-10-18T21:09:06.338Z,98744.34
2022-10-18T21:11:36.724Z,98744.00
2022-10-18T21:14:06.792Z,98739.59
2022-10-18T21:16:36.356Z,98745.72
2022-10-18T21:19:04.842Z,98740.47
2022-10-18T21:21:33.184Z,98744.44
2022-10-18T21:24:04.052Z,98742.28
2022-10-18T21:26:36.206Z,98735.53
2022-10-18T21:29:05.998Z,98730.78
2022-10-18T21:31:35.165Z,98722.22
2022-10-18T21:34:04.525Z,98723.28
2022-10-18T21:36:33.841Z,98721.56
2022-10-18T21:39:02.024Z,98717.91
2022-10-18T21:41:30.225Z,98709.53
2022-10-18T21:43:58.660Z,98707.97
2022-10-18T21:46:28.593Z,98714.19
2022-10-18T21:48:57.483Z,98711.16
2022-10-18T21:51:26.532Z,98701.84
2022-10-18T21:53:55.698Z,98705.19
2022-10-18T21:56:24.580Z,98707.06
2022-10-18T21:58:52.788Z,98700.09
2022-10-18T22:01:22.856Z,98696.03
2022-10-18T22:03:53.488Z,98699.88
2022-10-18T22:06:21.771Z,98698.06
2022-10-18T22:08:50.798Z,98699.00
2022-10-18T22:11:19.311Z,98694.84
2022-10-18T22:13:47.815Z,98696.84
2022-10-18T22:16:16.714Z,98696.84
2022-10-18T22:18:44.931Z,98699.09
2022-10-18T22:21:15.420Z,98697.38
2022-10-18T22:23:44.380Z,98701.31
2022-10-18T22:26:13.347Z,98703.59
2022-10-18T22:28:41.814Z,98700.91
2022-10-18T22:31:15.371Z,98698.31
2022-10-18T22:33:43.581Z,98701.97
2022-10-18T22:36:11.759Z,98696.69
2022-10-18T22:38:41.806Z,98691.06
2022-10-18T22:41:11.278Z,98688.28
2022-10-18T22:43:39.721Z,98690.81
2022-10-18T22:46:09.165Z,98689.00
2022-10-18T22:48:37.386Z,98682.91
2022-10-18T22:51:06.195Z,98683.03
2022-10-18T22:53:34.578Z,98692.78
2022-10-18T22:56:04.959Z,98693.06
2022-10-18T22:58:33.339Z,98691.66
2022-10-18T23:01:02.240Z,98693.38
2022-10-18T23:03:30.734Z,98695.50
2022-10-18T23:05:58.964Z,98693.78
2022-10-18T23:08:27.245Z,98698.03
2022-10-18T23:10:56.557Z,98690.97
2022-10-18T23:13:26.589Z,98692.16
2022-10-18T23:15:55.125Z,98692.56
2022-10-18T23:18:23.353Z,98694.47
2022-10-18T23:20:51.574Z,98693.44
2022-10-18T23:23:19.762Z,98696.13
2022-10-18T23:25:51.653Z,98696.13
2022-10-18T23:28:20.077Z,98697.47
2022-10-18T23:30:49.633Z,98705.03
2022-10-18T23:33:18.328Z,98710.22
2022-10-18T23:35:46.575Z,98708.66
2022-10-18T23:38:14.785Z,98700.81
2022-10-18T23:40:43.255Z,98702.47
2022-10-18T23:43:11.466Z,98699.97
2022-10-18T23:45:41.026Z,98703.22
2022-10-18T23:48:10.669Z,98704.94
2022-10-18T23:50:38.843Z,98694.25
2022-10-18T23:53:07.083Z,98688.72
2022-10-18T23:55:35.272Z,98694.81
2022-10-18T23:58:03.494Z,98696.47
